sensor_id;sensor_type;location;lat;lon;timestamp;P1;durP1;ratioP1;P2;durP2;ratioP2
17844;SDS011;9047;53.486;10.218;2023-07-20T00:00:07;4.25;;;3.08;;
17844;SDS011;9047;53.486;10.218;2023-07-20T00:02:35;4.30;;;3.45;;
17844;SDS011;9047;53.486;10.218;2023-07-20T00:05:01;4.45;;;3.47;;
17844;SDS011;9047;53.486;10.218;2023-07-20T00:07:30;5.18;;;4.28;;
17844;SDS011;9047;53.486;10.218;2023-07-20T00:09:56;5.57;;;3.90;;
17844;SDS011;9047;53.486;10.218;2023-07-20T00:12:23;5.22;;;3.85;;
17844;SDS011;9047;53.486;10.218;2023-07-20T00:14:50;8.25;;;3.92;;
17844;SDS011;9047;53.486;10.218;2023-07-20T00:17:18;4.35;;;3.95;;
17844;SDS011;9047;53.486;10.218;2023-07-20T00:19:45;5.63;;;4.30;;
17844;SDS011;9047;53.486;10.218;2023-07-20T00:22:12;5.72;;;3.53;;
17844;SDS011;9047;53.486;10.218;2023-07-20T00:24:41;6.57;;;3.88;;
17844;SDS011;9047;53.486;10.218;2023-07-20T00:27:08;7.30;;;3.95;;
17844;SDS011;9047;53.486;10.218;2023-07-20T00:29:35;7.30;;;4.10;;
17844;SDS011;9047;53.486;10.218;2023-07-20T00:32:02;7.72;;;4.47;;
17844;SDS011;9047;53.486;10.218;2023-07-20T00:34:30;5.97;;;4.07;;
17844;SDS011;9047;53.486;10.218;2023-07-20T00:36:57;5.10;;;3.40;;
17844;SDS011;9047;53.486;10.218;2023-07-20T00:39:24;5.82;;;4.30;;
17844;SDS011;9047;53.486;10.218;2023-07-20T00:41:52;4.55;;;3.78;;
17844;SDS011;9047;53.486;10.218;2023-07-20T00:44:19;4.07;;;3.67;;
17844;SDS011;9047;53.486;10.218;2023-07-20T00:46:46;7.00;;;3.88;;
17844;SDS011;9047;53.486;10.218;2023-07-20T00:49:13;5.95;;;4.30;;
17844;SDS011;9047;53.486;10.218;2023-07-20T00:51:40;6.32;;;3.90;;
17844;SDS011;9047;53.486;10.218;2023-07-20T00:54:07;7.90;;;4.10;;
17844;SDS011;9047;53.486;10.218;2023-07-20T00:56:34;4.63;;;3.92;;
17844;SDS011;9047;53.486;10.218;2023-07-20T00:59:03;6.70;;;4.40;;
17844;SDS011;9047;53.486;10.218;2023-07-20T01:01:32;4.78;;;3.50;;
17844;SDS011;9047;53.486;10.218;2023-07-20T01:03:59;5.82;;;4.30;;
17844;SDS011;9047;53.486;10.218;2023-07-20T01:06:28;5.00;;;3.70;;
17844;SDS011;9047;53.486;10.218;2023-07-20T01:09:07;5.05;;;3.80;;
17844;SDS011;9047;53.486;10.218;2023-07-20T01:11:42;5.13;;;3.30;;
17844;SDS011;9047;53.486;10.218;2023-07-20T01:14:18;4.78;;;3.28;;
17844;SDS011;9047;53.486;10.218;2023-07-20T01:16:46;5.35;;;3.33;;
17844;SDS011;9047;53.486;10.218;2023-07-20T01:19:14;3.60;;;3.30;;
17844;SDS011;9047;53.486;10.218;2023-07-20T01:21:45;4.10;;;3.10;;
17844;SDS011;9047;53.486;10.218;2023-07-20T01:30:46;4.97;;;3.35;;
17844;SDS011;9047;53.486;10.218;2023-07-20T01:33:27;7.55;;;3.50;;
17844;SDS011;9047;53.486;10.218;2023-07-20T01:35:56;4.75;;;3.35;;
17844;SDS011;9047;53.486;10.218;2023-07-20T01:38:25;5.38;;;3.50;;
17844;SDS011;9047;53.486;10.218;2023-07-20T01:40:54;6.20;;;3.65;;
17844;SDS011;9047;53.486;10.218;2023-07-20T01:43:21;7.70;;;3.75;;
17844;SDS011;9047;53.486;10.218;2023-07-20T01:45:48;5.95;;;4.13;;
17844;SDS011;9047;53.486;10.218;2023-07-20T01:48:15;6.90;;;3.97;;
17844;SDS011;9047;53.486;10.218;2023-07-20T01:50:44;5.97;;;4.25;;
17844;SDS011;9047;53.486;10.218;2023-07-20T01:53:11;6.63;;;3.80;;
17844;SDS011;9047;53.486;10.218;2023-07-20T01:55:39;6.50;;;3.95;;
17844;SDS011;9047;53.486;10.218;2023-07-20T01:58:06;8.60;;;4.57;;
17844;SDS011;9047;53.486;10.218;2023-07-20T02:00:33;7.20;;;4.07;;
17844;SDS011;9047;53.486;10.218;2023-07-20T02:03:00;5.13;;;3.72;;
17844;SDS011;9047;53.486;10.218;2023-07-20T02:05:27;4.68;;;4.10;;
17844;SDS011;9047;53.486;10.218;2023-07-20T02:07:55;7.25;;;4.43;;
17844;SDS011;9047;53.486;10.218;2023-07-20T02:10:22;6.15;;;4.40;;
17844;SDS011;9047;53.486;10.218;2023-07-20T02:12:49;7.60;;;4.85;;
17844;SDS011;9047;53.486;10.218;2023-07-20T02:15:16;7.55;;;4.45;;
17844;SDS011;9047;53.486;10.218;2023-07-20T02:17:43;8.45;;;4.90;;
17844;SDS011;9047;53.486;10.218;2023-07-20T02:20:11;7.25;;;4.95;;
17844;SDS011;9047;53.486;10.218;2023-07-20T02:22:38;7.00;;;4.72;;
17844;SDS011;9047;53.486;10.218;2023-07-20T02:25:07;5.97;;;4.38;;
17844;SDS011;9047;53.486;10.218;2023-07-20T02:27:34;6.20;;;4.82;;
17844;SDS011;9047;53.486;10.218;2023-07-20T02:30:01;6.53;;;4.80;;
17844;SDS011;9047;53.486;10.218;2023-07-20T02:32:29;5.82;;;4.20;;
17844;SDS011;9047;53.486;10.218;2023-07-20T02:34:57;4.75;;;4.00;;
17844;SDS011;9047;53.486;10.218;2023-07-20T02:37:24;5.32;;;4.30;;
17844;SDS011;9047;53.486;10.218;2023-07-20T02:39:51;7.10;;;4.30;;
17844;SDS011;9047;53.486;10.218;2023-07-20T02:42:19;8.25;;;5.25;;
17844;SDS011;9047;53.486;10.218;2023-07-20T02:44:48;7.07;;;5.30;;
17844;SDS011;9047;53.486;10.218;2023-07-20T02:47:15;8.90;;;6.32;;
17844;SDS011;9047;53.486;10.218;2023-07-20T02:49:45;12.32;;;6.65;;
17844;SDS011;9047;53.486;10.218;2023-07-20T02:52:12;8.80;;;6.22;;
17844;SDS011;9047;53.486;10.218;2023-07-20T02:54:38;9.38;;;6.60;;
17844;SDS011;9047;53.486;10.218;2023-07-20T02:57:05;12.00;;;7.15;;
17844;SDS011;9047;53.486;10.218;2023-07-20T02:59:34;9.93;;;6.13;;
17844;SDS011;9047;53.486;10.218;2023-07-20T03:02:00;8.55;;;6.15;;
17844;SDS011;9047;53.486;10.218;2023-07-20T03:04:28;8.43;;;6.28;;
17844;SDS011;9047;53.486;10.218;2023-07-20T03:06:55;8.73;;;6.05;;
17844;SDS011;9047;53.486;10.218;2023-07-20T03:09:21;10.25;;;6.25;;
17844;SDS011;9047;53.486;10.218;2023-07-20T03:11:49;9.77;;;6.57;;
17844;SDS011;9047;53.486;10.218;2023-07-20T03:14:16;9.93;;;7.18;;
17844;SDS011;9047;53.486;10.218;2023-07-20T03:16:44;8.43;;;6.82;;
17844;SDS011;9047;53.486;10.218;2023-07-20T03:19:11;10.63;;;7.25;;
17844;SDS011;9047;53.486;10.218;2023-07-20T03:21:38;7.97;;;6.53;;
17844;SDS011;9047;53.486;10.218;2023-07-20T03:24:06;8.75;;;6.38;;
17844;SDS011;9047;53.486;10.218;2023-07-20T03:26:33;8.77;;;6.40;;
17844;SDS011;9047;53.486;10.218;2023-07-20T03:29:00;8.75;;;6.38;;
17844;SDS011;9047;53.486;10.218;2023-07-20T03:31:27;8.68;;;6.47;;
17844;SDS011;9047;53.486;10.218;2023-07-20T03:33:56;10.63;;;6.45;;
17844;SDS011;9047;53.486;10.218;2023-07-20T03:36:26;9.32;;;7.10;;
17844;SDS011;9047;53.486;10.218;2023-07-20T03:38:53;9.48;;;7.03;;
17844;SDS011;9047;53.486;10.218;2023-07-20T03:41:19;10.30;;;7.05;;
17844;SDS011;9047;53.486;10.218;2023-07-20T03:43:46;11.10;;;7.07;;
17844;SDS011;9047;53.486;10.218;2023-07-20T03:46:14;8.73;;;6.97;;
17844;SDS011;9047;53.486;10.218;2023-07-20T03:48:40;9.52;;;7.15;;
17844;SDS011;9047;53.486;10.218;2023-07-20T03:51:08;11.73;;;7.32;;
17844;SDS011;9047;53.486;10.218;2023-07-20T03:53:35;8.10;;;6.55;;
17844;SDS011;9047;53.486;10.218;2023-07-20T03:56:03;6.63;;;5.93;;
17844;SDS011;9047;53.486;10.218;2023-07-20T03:58:32;8.93;;;6.22;;
17844;SDS011;9047;53.486;10.218;2023-07-20T04:00:58;8.35;;;5.72;;
17844;SDS011;9047;53.486;10.218;2023-07-20T04:03:25;6.57;;;5.53;;
17844;SDS011;9047;53.486;10.218;2023-07-20T04:05:53;5.90;;;5.30;;
17844;SDS011;9047;53.486;10.218;2023-07-20T04:08:22;6.20;;;5.07;;
17844;SDS011;9047;53.486;10.218;2023-07-20T04:10:50;6.93;;;5.43;;
17844;SDS011;9047;53.486;10.218;2023-07-20T04:13:17;7.65;;;5.85;;
17844;SDS011;9047;53.486;10.218;2023-07-20T04:15:44;8.35;;;5.55;;
17844;SDS011;9047;53.486;10.218;2023-07-20T04:18:11;8.43;;;5.43;;
17844;SDS011;9047;53.486;10.218;2023-07-20T04:20:37;7.50;;;5.57;;
17844;SDS011;9047;53.486;10.218;2023-07-20T04:23:04;9.90;;;5.38;;
17844;SDS011;9047;53.486;10.218;2023-07-20T04:25:32;9.55;;;6.05;;
17844;SDS011;9047;53.486;10.218;2023-07-20T04:28:04;5.40;;;4.85;;
17844;SDS011;9047;53.486;10.218;2023-07-20T04:30:48;8.43;;;6.60;;
17844;SDS011;9047;53.486;10.218;2023-07-20T04:33:16;9.25;;;6.50;;
17844;SDS011;9047;53.486;10.218;2023-07-20T04:35:47;8.27;;;6.93;;
17844;SDS011;9047;53.486;10.218;2023-07-20T04:38:15;8.77;;;6.72;;
17844;SDS011;9047;53.486;10.218;2023-07-20T04:40:44;8.02;;;6.38;;
17844;SDS011;9047;53.486;10.218;2023-07-20T04:43:12;11.60;;;6.65;;
17844;SDS011;9047;53.486;10.218;2023-07-20T04:45:39;11.32;;;7.60;;
17844;SDS011;9047;53.486;10.218;2023-07-20T04:48:06;9.90;;;6.97;;
17844;SDS011;9047;53.486;10.218;2023-07-20T04:50:36;9.18;;;6.03;;
17844;SDS011;9047;53.486;10.218;2023-07-20T04:53:03;8.07;;;5.50;;
17844;SDS011;9047;53.486;10.218;2023-07-20T04:55:31;7.97;;;6.05;;
17844;SDS011;9047;53.486;10.218;2023-07-20T04:58:00;6.53;;;5.30;;
17844;SDS011;9047;53.486;10.218;2023-07-20T05:00:28;6.93;;;5.25;;
17844;SDS011;9047;53.486;10.218;2023-07-20T05:02:55;8.88;;;6.00;;
17844;SDS011;9047;53.486;10.218;2023-07-20T05:05:22;7.43;;;5.22;;
17844;SDS011;9047;53.486;10.218;2023-07-20T05:07:49;7.72;;;5.68;;
17844;SDS011;9047;53.486;10.218;2023-07-20T05:10:17;7.80;;;5.30;;
17844;SDS011;9047;53.486;10.218;2023-07-20T05:12:43;8.82;;;5.07;;
17844;SDS011;9047;53.486;10.218;2023-07-20T05:15:12;5.32;;;4.70;;
17844;SDS011;9047;53.486;10.218;2023-07-20T05:17:39;6.32;;;4.60;;
17844;SDS011;9047;53.486;10.218;2023-07-20T05:20:06;7.22;;;4.20;;
17844;SDS011;9047;53.486;10.218;2023-07-20T05:22:34;4.93;;;4.07;;
17844;SDS011;9047;53.486;10.218;2023-07-20T05:25:05;5.20;;;3.80;;
17844;SDS011;9047;53.486;10.218;2023-07-20T05:27:33;4.40;;;3.50;;
17844;SDS011;9047;53.486;10.218;2023-07-20T05:30:01;4.22;;;3.60;;
17844;SDS011;9047;53.486;10.218;2023-07-20T05:32:29;4.07;;;3.55;;
17844;SDS011;9047;53.486;10.218;2023-07-20T05:34:56;5.35;;;4.20;;
17844;SDS011;9047;53.486;10.218;2023-07-20T05:37:24;3.55;;;3.00;;
17844;SDS011;9047;53.486;10.218;2023-07-20T05:39:50;5.32;;;3.65;;
17844;SDS011;9047;53.486;10.218;2023-07-20T05:42:17;4.65;;;2.80;;
17844;SDS011;9047;53.486;10.218;2023-07-20T05:44:44;4.68;;;2.88;;
17844;SDS011;9047;53.486;10.218;2023-07-20T05:47:12;3.40;;;2.92;;
17844;SDS011;9047;53.486;10.218;2023-07-20T05:49:40;5.95;;;3.33;;
17844;SDS011;9047;53.486;10.218;2023-07-20T05:52:07;6.90;;;3.40;;
17844;SDS011;9047;53.486;10.218;2023-07-20T05:54:34;4.32;;;3.53;;
17844;SDS011;9047;53.486;10.218;2023-07-20T05:57:01;4.25;;;3.40;;
17844;SDS011;9047;53.486;10.218;2023-07-20T05:59:27;4.80;;;3.55;;
17844;SDS011;9047;53.486;10.218;2023-07-20T06:01:55;5.90;;;3.65;;
17844;SDS011;9047;53.486;10.218;2023-07-20T06:04:22;4.15;;;3.30;;
17844;SDS011;9047;53.486;10.218;2023-07-20T06:06:51;4.97;;;3.55;;
17844;SDS011;9047;53.486;10.218;2023-07-20T06:09:18;4.72;;;4.10;;
17844;SDS011;9047;53.486;10.218;2023-07-20T06:11:44;4.97;;;3.70;;
17844;SDS011;9047;53.486;10.218;2023-07-20T06:14:11;6.60;;;4.22;;
17844;SDS011;9047;53.486;10.218;2023-07-20T06:16:38;5.65;;;4.18;;
17844;SDS011;9047;53.486;10.218;2023-07-20T06:19:05;5.78;;;4.05;;
17844;SDS011;9047;53.486;10.218;2023-07-20T06:21:32;4.85;;;3.90;;
17844;SDS011;9047;53.486;10.218;2023-07-20T06:24:01;6.53;;;4.40;;
17844;SDS011;9047;53.486;10.218;2023-07-20T06:26:28;6.38;;;3.75;;
17844;SDS011;9047;53.486;10.218;2023-07-20T06:28:55;6.43;;;4.05;;
17844;SDS011;9047;53.486;10.218;2023-07-20T06:31:22;4.38;;;3.38;;
17844;SDS011;9047;53.486;10.218;2023-07-20T06:33:48;4.00;;;2.42;;
17844;SDS011;9047;53.486;10.218;2023-07-20T06:36:16;4.22;;;2.20;;
17844;SDS011;9047;53.486;10.218;2023-07-20T06:38:44;3.97;;;2.22;;
17844;SDS011;9047;53.486;10.218;2023-07-20T06:41:12;3.53;;;2.20;;
17844;SDS011;9047;53.486;10.218;2023-07-20T06:43:39;4.25;;;1.95;;
17844;SDS011;9047;53.486;10.218;2023-07-20T06:46:06;2.90;;;1.50;;
17844;SDS011;9047;53.486;10.218;2023-07-20T06:48:33;2.33;;;1.70;;
17844;SDS011;9047;53.486;10.218;2023-07-20T06:50:59;1.90;;;1.45;;
17844;SDS011;9047;53.486;10.218;2023-07-20T06:53:27;4.32;;;1.40;;
17844;SDS011;9047;53.486;10.218;2023-07-20T06:55:54;3.78;;;1.48;;
17844;SDS011;9047;53.486;10.218;2023-07-20T06:58:23;2.28;;;1.10;;
17844;SDS011;9047;53.486;10.218;2023-07-20T07:00:51;5.20;;;1.25;;
17844;SDS011;9047;53.486;10.218;2023-07-20T07:03:18;2.83;;;1.20;;
17844;SDS011;9047;53.486;10.218;2023-07-20T07:05:46;3.33;;;1.05;;
17844;SDS011;9047;53.486;10.218;2023-07-20T07:08:13;2.92;;;1.25;;
17844;SDS011;9047;53.486;10.218;2023-07-20T07:10:41;2.22;;;1.00;;
17844;SDS011;9047;53.486;10.218;2023-07-20T07:13:09;1.85;;;0.90;;
17844;SDS011;9047;53.486;10.218;2023-07-20T07:15:37;3.05;;;0.90;;
17844;SDS011;9047;53.486;10.218;2023-07-20T07:18:04;5.80;;;1.20;;
17844;SDS011;9047;53.486;10.218;2023-07-20T07:20:31;2.28;;;1.05;;
17844;SDS011;9047;53.486;10.218;2023-07-20T07:22:58;3.58;;;1.00;;
17844;SDS011;9047;53.486;10.218;2023-07-20T07:25:25;2.08;;;1.08;;
17844;SDS011;9047;53.486;10.218;2023-07-20T07:27:53;4.30;;;1.10;;
17844;SDS011;9047;53.486;10.218;2023-07-20T07:30:21;4.40;;;1.10;;
17844;SDS011;9047;53.486;10.218;2023-07-20T07:32:49;2.67;;;1.00;;
17844;SDS011;9047;53.486;10.218;2023-07-20T07:35:17;4.05;;;1.13;;
17844;SDS011;9047;53.486;10.218;2023-07-20T07:37:44;2.97;;;0.90;;
17844;SDS011;9047;53.486;10.218;2023-07-20T07:40:12;2.17;;;0.93;;
17844;SDS011;9047;53.486;10.218;2023-07-20T07:42:41;2.92;;;1.10;;
17844;SDS011;9047;53.486;10.218;2023-07-20T07:45:09;2.58;;;1.00;;
17844;SDS011;9047;53.486;10.218;2023-07-20T07:47:36;4.22;;;1.50;;
17844;SDS011;9047;53.486;10.218;2023-07-20T07:50:05;4.68;;;1.25;;
17844;SDS011;9047;53.486;10.218;2023-07-20T07:52:32;2.63;;;1.20;;
17844;SDS011;9047;53.486;10.218;2023-07-20T07:54:59;4.05;;;1.30;;
17844;SDS011;9047;53.486;10.218;2023-07-20T07:57:26;4.03;;;1.20;;
17844;SDS011;9047;53.486;10.218;2023-07-20T07:59:53;6.15;;;1.55;;
17844;SDS011;9047;53.486;10.218;2023-07-20T08:02:19;3.60;;;1.30;;
17844;SDS011;9047;53.486;10.218;2023-07-20T08:04:46;3.88;;;1.38;;
17844;SDS011;9047;53.486;10.218;2023-07-20T08:07:18;2.90;;;1.30;;
17844;SDS011;9047;53.486;10.218;2023-07-20T08:09:48;3.50;;;1.27;;
17844;SDS011;9047;53.486;10.218;2023-07-20T08:12:14;4.28;;;1.23;;
17844;SDS011;9047;53.486;10.218;2023-07-20T08:14:43;4.93;;;1.42;;
17844;SDS011;9047;53.486;10.218;2023-07-20T08:17:10;2.67;;;1.35;;
17844;SDS011;9047;53.486;10.218;2023-07-20T08:19:37;3.40;;;1.60;;
17844;SDS011;9047;53.486;10.218;2023-07-20T08:22:07;2.90;;;1.50;;
17844;SDS011;9047;53.486;10.218;2023-07-20T08:24:38;3.03;;;1.50;;
17844;SDS011;9047;53.486;10.218;2023-07-20T08:27:06;3.47;;;1.35;;
17844;SDS011;9047;53.486;10.218;2023-07-20T08:29:33;4.05;;;1.42;;
17844;SDS011;9047;53.486;10.218;2023-07-20T08:32:01;4.95;;;1.65;;
17844;SDS011;9047;53.486;10.218;2023-07-20T08:34:29;3.35;;;1.50;;
17844;SDS011;9047;53.486;10.218;2023-07-20T08:36:56;3.35;;;1.40;;
17844;SDS011;9047;53.486;10.218;2023-07-20T08:39:23;3.60;;;1.55;;
17844;SDS011;9047;53.486;10.218;2023-07-20T08:41:52;3.42;;;1.70;;
17844;SDS011;9047;53.486;10.218;2023-07-20T08:44:19;5.68;;;1.50;;
17844;SDS011;9047;53.486;10.218;2023-07-20T08:46:47;4.03;;;1.70;;
17844;SDS011;9047;53.486;10.218;2023-07-20T08:49:15;4.15;;;1.48;;
17844;SDS011;9047;53.486;10.218;2023-07-20T08:51:43;4.93;;;1.75;;
17844;SDS011;9047;53.486;10.218;2023-07-20T08:54:12;3.88;;;1.65;;
17844;SDS011;9047;53.486;10.218;2023-07-20T08:56:40;5.50;;;1.67;;
17844;SDS011;9047;53.486;10.218;2023-07-20T08:59:10;4.00;;;1.58;;
17844;SDS011;9047;53.486;10.218;2023-07-20T09:01:38;3.97;;;1.75;;
17844;SDS011;9047;53.486;10.218;2023-07-20T09:04:05;4.57;;;1.80;;
17844;SDS011;9047;53.486;10.218;2023-07-20T09:06:32;5.60;;;2.17;;
17844;SDS011;9047;53.486;10.218;2023-07-20T09:09:01;3.22;;;1.83;;
17844;SDS011;9047;53.486;10.218;2023-07-20T09:11:28;6.43;;;2.20;;
17844;SDS011;9047;53.486;10.218;2023-07-20T09:14:04;5.75;;;1.85;;
17844;SDS011;9047;53.486;10.218;2023-07-20T09:16:33;5.32;;;2.53;;
17844;SDS011;9047;53.486;10.218;2023-07-20T09:19:14;6.90;;;2.85;;
17844;SDS011;9047;53.486;10.218;2023-07-20T09:21:41;6.57;;;2.63;;
17844;SDS011;9047;53.486;10.218;2023-07-20T09:24:10;4.85;;;2.13;;
17844;SDS011;9047;53.486;10.218;2023-07-20T09:26:40;6.07;;;2.50;;
17844;SDS011;9047;53.486;10.218;2023-07-20T09:29:08;7.90;;;2.95;;
17844;SDS011;9047;53.486;10.218;2023-07-20T09:31:36;6.53;;;2.50;;
17844;SDS011;9047;53.486;10.218;2023-07-20T09:34:05;4.18;;;2.05;;
17844;SDS011;9047;53.486;10.218;2023-07-20T09:36:33;7.03;;;2.03;;
17844;SDS011;9047;53.486;10.218;2023-07-20T09:39:03;6.13;;;2.20;;
17844;SDS011;9047;53.486;10.218;2023-07-20T09:41:30;7.53;;;2.20;;
17844;SDS011;9047;53.486;10.218;2023-07-20T09:44:06;6.85;;;1.90;;
17844;SDS011;9047;53.486;10.218;2023-07-20T09:46:42;5.60;;;1.83;;
17844;SDS011;9047;53.486;10.218;2023-07-20T09:49:10;4.57;;;1.58;;
17844;SDS011;9047;53.486;10.218;2023-07-20T09:51:37;3.78;;;1.52;;
17844;SDS011;9047;53.486;10.218;2023-07-20T09:54:04;4.00;;;1.50;;
17844;SDS011;9047;53.486;10.218;2023-07-20T09:56:32;4.20;;;1.67;;
17844;SDS011;9047;53.486;10.218;2023-07-20T09:59:00;5.05;;;1.80;;
17844;SDS011;9047;53.486;10.218;2023-07-20T10:01:27;4.65;;;1.88;;
17844;SDS011;9047;53.486;10.218;2023-07-20T10:04:02;4.68;;;1.90;;
17844;SDS011;9047;53.486;10.218;2023-07-20T10:06:30;7.53;;;2.15;;
17844;SDS011;9047;53.486;10.218;2023-07-20T10:09:00;6.13;;;2.03;;
17844;SDS011;9047;53.486;10.218;2023-07-20T10:11:29;5.18;;;1.90;;
17844;SDS011;9047;53.486;10.218;2023-07-20T10:13:58;4.47;;;1.60;;
17844;SDS011;9047;53.486;10.218;2023-07-20T10:16:26;5.60;;;1.55;;
17844;SDS011;9047;53.486;10.218;2023-07-20T10:18:59;3.47;;;1.27;;
17844;SDS011;9047;53.486;10.218;2023-07-20T10:21:32;3.88;;;1.27;;
17844;SDS011;9047;53.486;10.218;2023-07-20T10:24:01;5.57;;;1.30;;
17844;SDS011;9047;53.486;10.218;2023-07-20T10:26:30;4.28;;;1.55;;
17844;SDS011;9047;53.486;10.218;2023-07-20T10:28:57;4.97;;;1.80;;
17844;SDS011;9047;53.486;10.218;2023-07-20T10:31:25;3.38;;;1.20;;
17844;SDS011;9047;53.486;10.218;2023-07-20T10:33:54;2.38;;;1.05;;
17844;SDS011;9047;53.486;10.218;2023-07-20T10:36:25;2.92;;;1.52;;
17844;SDS011;9047;53.486;10.218;2023-07-20T10:38:54;3.50;;;1.20;;
17844;SDS011;9047;53.486;10.218;2023-07-20T10:41:22;3.55;;;1.35;;
17844;SDS011;9047;53.486;10.218;2023-07-20T10:44:00;4.72;;;1.40;;
17844;SDS011;9047;53.486;10.218;2023-07-20T10:46:35;3.15;;;1.33;;
17844;SDS011;9047;53.486;10.218;2023-07-20T10:49:14;3.00;;;1.20;;
17844;SDS011;9047;53.486;10.218;2023-07-20T10:51:43;7.25;;;1.33;;
17844;SDS011;9047;53.486;10.218;2023-07-20T10:57:21;3.35;;;1.45;;
17844;SDS011;9047;53.486;10.218;2023-07-20T10:59:50;3.50;;;1.27;;
17844;SDS011;9047;53.486;10.218;2023-07-20T11:02:17;2.45;;;1.20;;
17844;SDS011;9047;53.486;10.218;2023-07-20T11:04:46;3.63;;;1.10;;
17844;SDS011;9047;53.486;10.218;2023-07-20T11:10:14;4.88;;;1.13;;
17844;SDS011;9047;53.486;10.218;2023-07-20T11:12:49;2.88;;;1.20;;
17844;SDS011;9047;53.486;10.218;2023-07-20T11:15:53;3.92;;;1.10;;
17844;SDS011;9047;53.486;10.218;2023-07-20T11:18:29;3.25;;;1.00;;
17844;SDS011;9047;53.486;10.218;2023-07-20T11:20:59;2.45;;;0.90;;
17844;SDS011;9047;53.486;10.218;2023-07-20T11:23:26;2.90;;;1.10;;
17844;SDS011;9047;53.486;10.218;2023-07-20T11:25:53;2.13;;;0.90;;
17844;SDS011;9047;53.486;10.218;2023-07-20T11:28:23;2.15;;;1.05;;
17844;SDS011;9047;53.486;10.218;2023-07-20T11:30:54;3.33;;;1.00;;
17844;SDS011;9047;53.486;10.218;2023-07-20T11:33:21;3.40;;;0.88;;
17844;SDS011;9047;53.486;10.218;2023-07-20T11:35:50;2.88;;;0.80;;
17844;SDS011;9047;53.486;10.218;2023-07-20T11:38:18;2.50;;;0.80;;
17844;SDS011;9047;53.486;10.218;2023-07-20T11:40:45;2.70;;;0.80;;
17844;SDS011;9047;53.486;10.218;2023-07-20T11:43:15;1.63;;;0.70;;
17844;SDS011;9047;53.486;10.218;2023-07-20T11:45:47;1.10;;;0.63;;
17844;SDS011;9047;53.486;10.218;2023-07-20T11:48:15;3.20;;;0.98;;
17844;SDS011;9047;53.486;10.218;2023-07-20T11:50:45;1.70;;;0.60;;
17844;SDS011;9047;53.486;10.218;2023-07-20T11:53:12;2.33;;;0.80;;
17844;SDS011;9047;53.486;10.218;2023-07-20T11:55:39;4.60;;;0.82;;
17844;SDS011;9047;53.486;10.218;2023-07-20T11:58:07;1.27;;;0.70;;
17844;SDS011;9047;53.486;10.218;2023-07-20T12:00:36;1.05;;;0.70;;
17844;SDS011;9047;53.486;10.218;2023-07-20T12:03:06;1.92;;;0.80;;
17844;SDS011;9047;53.486;10.218;2023-07-20T12:05:37;3.63;;;0.90;;
17844;SDS011;9047;53.486;10.218;2023-07-20T12:08:05;2.33;;;0.75;;
17844;SDS011;9047;53.486;10.218;2023-07-20T12:10:31;2.80;;;0.90;;
17844;SDS011;9047;53.486;10.218;2023-07-20T12:13:00;3.72;;;1.00;;
17844;SDS011;9047;53.486;10.218;2023-07-20T12:15:29;3.45;;;1.10;;
17844;SDS011;9047;53.486;10.218;2023-07-20T12:17:57;4.72;;;1.00;;
17844;SDS011;9047;53.486;10.218;2023-07-20T12:20:28;3.17;;;1.10;;
17844;SDS011;9047;53.486;10.218;2023-07-20T12:22:56;2.80;;;0.90;;
17844;SDS011;9047;53.486;10.218;2023-07-20T12:25:32;2.05;;;0.80;;
17844;SDS011;9047;53.486;10.218;2023-07-20T12:28:00;1.42;;;0.80;;
17844;SDS011;9047;53.486;10.218;2023-07-20T12:30:29;2.88;;;1.02;;
17844;SDS011;9047;53.486;10.218;2023-07-20T12:32:56;3.00;;;1.00;;
17844;SDS011;9047;53.486;10.218;2023-07-20T12:35:23;3.08;;;0.88;;
17844;SDS011;9047;53.486;10.218;2023-07-20T12:37:51;2.10;;;0.88;;
17844;SDS011;9047;53.486;10.218;2023-07-20T12:40:20;3.67;;;1.10;;
17844;SDS011;9047;53.486;10.218;2023-07-20T12:42:46;4.20;;;1.00;;
17844;SDS011;9047;53.486;10.218;2023-07-20T12:45:14;2.33;;;0.90;;
17844;SDS011;9047;53.486;10.218;2023-07-20T12:47:41;2.38;;;0.95;;
17844;SDS011;9047;53.486;10.218;2023-07-20T12:50:09;3.60;;;1.05;;
17844;SDS011;9047;53.486;10.218;2023-07-20T12:52:36;3.90;;;1.23;;
17844;SDS011;9047;53.486;10.218;2023-07-20T12:55:06;2.95;;;1.13;;
17844;SDS011;9047;53.486;10.218;2023-07-20T12:57:34;3.13;;;0.75;;
17844;SDS011;9047;53.486;10.218;2023-07-20T13:00:01;4.13;;;0.85;;
17844;SDS011;9047;53.486;10.218;2023-07-20T13:02:29;2.88;;;0.88;;
17844;SDS011;9047;53.486;10.218;2023-07-20T13:04:57;3.80;;;0.93;;
17844;SDS011;9047;53.486;10.218;2023-07-20T13:07:33;1.98;;;0.90;;
17844;SDS011;9047;53.486;10.218;2023-07-20T13:10:02;2.67;;;0.85;;
17844;SDS011;9047;53.486;10.218;2023-07-20T13:12:31;2.95;;;1.00;;
17844;SDS011;9047;53.486;10.218;2023-07-20T13:15:01;2.08;;;0.80;;
17844;SDS011;9047;53.486;10.218;2023-07-20T13:17:31;3.15;;;1.08;;
17844;SDS011;9047;53.486;10.218;2023-07-20T13:19:58;5.45;;;1.00;;
17844;SDS011;9047;53.486;10.218;2023-07-20T13:22:25;3.85;;;1.10;;
17844;SDS011;9047;53.486;10.218;2023-07-20T13:24:52;3.42;;;1.00;;
17844;SDS011;9047;53.486;10.218;2023-07-20T13:27:19;4.65;;;1.17;;
17844;SDS011;9047;53.486;10.218;2023-07-20T13:29:48;7.90;;;1.30;;
17844;SDS011;9047;53.486;10.218;2023-07-20T13:32:15;2.08;;;0.93;;
17844;SDS011;9047;53.486;10.218;2023-07-20T13:34:43;3.22;;;0.80;;
17844;SDS011;9047;53.486;10.218;2023-07-20T13:37:10;2.72;;;0.98;;
17844;SDS011;9047;53.486;10.218;2023-07-20T13:39:37;2.22;;;0.75;;
17844;SDS011;9047;53.486;10.218;2023-07-20T13:42:05;1.83;;;0.90;;
17844;SDS011;9047;53.486;10.218;2023-07-20T13:44:32;3.92;;;0.93;;
17844;SDS011;9047;53.486;10.218;2023-07-20T13:47:01;2.88;;;0.90;;
17844;SDS011;9047;53.486;10.218;2023-07-20T13:49:28;3.33;;;0.80;;
17844;SDS011;9047;53.486;10.218;2023-07-20T13:51:55;3.13;;;0.82;;
17844;SDS011;9047;53.486;10.218;2023-07-20T13:54:22;3.33;;;0.90;;
17844;SDS011;9047;53.486;10.218;2023-07-20T13:56:49;3.45;;;0.93;;
17844;SDS011;9047;53.486;10.218;2023-07-20T13:59:17;3.92;;;0.90;;
17844;SDS011;9047;53.486;10.218;2023-07-20T14:01:44;2.97;;;0.90;;
17844;SDS011;9047;53.486;10.218;2023-07-20T14:04:13;2.85;;;0.77;;
17844;SDS011;9047;53.486;10.218;2023-07-20T14:06:43;1.08;;;0.70;;
17844;SDS011;9047;53.486;10.218;2023-07-20T14:09:10;1.45;;;0.70;;
17844;SDS011;9047;53.486;10.218;2023-07-20T14:11:40;4.18;;;0.80;;
17844;SDS011;9047;53.486;10.218;2023-07-20T14:14:07;2.10;;;0.77;;
17844;SDS011;9047;53.486;10.218;2023-07-20T14:16:34;2.95;;;0.73;;
17844;SDS011;9047;53.486;10.218;2023-07-20T14:19:03;4.03;;;1.02;;
17844;SDS011;9047;53.486;10.218;2023-07-20T14:21:33;2.40;;;0.88;;
17844;SDS011;9047;53.486;10.218;2023-07-20T14:24:02;3.90;;;1.30;;
17844;SDS011;9047;53.486;10.218;2023-07-20T14:26:30;2.85;;;0.80;;
17844;SDS011;9047;53.486;10.218;2023-07-20T14:28:56;4.22;;;1.40;;
17844;SDS011;9047;53.486;10.218;2023-07-20T14:31:23;3.10;;;1.10;;
17844;SDS011;9047;53.486;10.218;2023-07-20T14:33:51;4.43;;;1.25;;
17844;SDS011;9047;53.486;10.218;2023-07-20T14:36:18;3.75;;;1.00;;
17844;SDS011;9047;53.486;10.218;2023-07-20T14:38:47;2.83;;;0.98;;
17844;SDS011;9047;53.486;10.218;2023-07-20T14:41:13;3.00;;;0.85;;
17844;SDS011;9047;53.486;10.218;2023-07-20T14:43:41;3.70;;;1.00;;
17844;SDS011;9047;53.486;10.218;2023-07-20T14:46:07;4.32;;;0.95;;
17844;SDS011;9047;53.486;10.218;2023-07-20T14:48:34;2.72;;;0.70;;
17844;SDS011;9047;53.486;10.218;2023-07-20T14:51:03;1.80;;;0.80;;
17844;SDS011;9047;53.486;10.218;2023-07-20T14:53:30;1.20;;;0.70;;
17844;SDS011;9047;53.486;10.218;2023-07-20T14:55:59;2.65;;;0.90;;
17844;SDS011;9047;53.486;10.218;2023-07-20T14:58:27;2.85;;;1.10;;
17844;SDS011;9047;53.486;10.218;2023-07-20T15:00:54;4.03;;;1.00;;
17844;SDS011;9047;53.486;10.218;2023-07-20T15:03:20;2.40;;;0.98;;
17844;SDS011;9047;53.486;10.218;2023-07-20T15:05:47;2.28;;;0.88;;